Time;durP1;ratioP1;P1;durP2;ratioP2;P2;SDS_P1;SDS_P2;PMS_P1;PMS_P2;Temp;Humidity;BMP_temperature;BMP_pressure;BME280_temperature;BME280_humidity;BME280_pressure;Samples;Min_cycle;Max_cycle;Signal;HPM_P1;HPM_P2
2021/01/26 00:31:58;;;;;;;5.63;5.13;;;;;;;1.95;84.45;95100.88;4790482;29;20339;-83
2021/01/26 00:35:23;;;;;;;5.63;5.13;;;;;;;1.98;84.49;95098.06;4846111;29;20219;-83
2021/01/26 00:55:23;;;;;;;6.20;5.60;;;;;;;1.94;83.85;95124.66;4976213;28;20212;-83
2021/01/26 02:14:03;;;;;;;;;;;;;;;;;;;;;
2021/01/26 03:10:45;;;;;;;6.90;6.00;;;;;;;1.44;82.86;95270.31;4830543;29;20225;-83
2021/01/26 04:07:55;;;;;;;;;;;;;;;;;;;;;
2021/01/26 04:34:39;;;;;;;;;;;;;;;;;;;;;
2021/01/26 06:00:49;;;;;;;8.37;6.30;;;;;;;1.24;74.68;95397.00;5089759;23;20631;-81
2021/01/26 06:03:34;;;;;;;7.23;6.00;;;;;;;1.23;75.03;95407.28;5013327;28;20325;-81
2021/01/26 06:06:33;;;;;;;9.00;6.53;;;;;;;1.08;73.78;95401.72;5027790;28;20649;-82
2021/01/26 06:17:04;;;;;;;6.83;6.10;;;;;;;1.09;74.35;95405.88;4948073;28;20219;-81
2021/01/26 06:32:35;;;;;;;5.37;4.87;;;;;;;0.86;74.88;95415.28;4827976;29;20247;-81
2021/01/26 06:39:20;;;;;;;5.83;5.13;;;;;;;0.81;73.17;95414.84;4977385;28;20223;-81
2021/01/26 06:42:12;;;;;;;5.50;5.00;;;;;;;0.93;73.05;95413.91;4956390;28;20227;-81
2021/01/26 06:45:07;;;;;;;5.83;5.17;;;;;;;0.83;72.41;95405.41;4996422;28;20235;-82
2021/01/26 06:48:31;;;;;;;6.00;5.37;;;;;;;0.84;72.29;95401.94;4997759;28;20224;-81
2021/01/26 06:51:48;;;;;;;6.30;5.33;;;;;;;0.88;72.38;95405.03;4997833;28;20254;-81
2021/01/26 06:55:12;;;;;;;;;;;;;;;;;;;;;
2021/01/26 06:58:23;;;;;;;7.03;5.50;;;;;;;1.00;72.43;95419.25;5016794;28;20306;-82
2021/01/26 07:04:50;;;;;;;4.97;4.33;;;;;;;2.78;79.22;95422.13;4975395;28;20198;-81
2021/01/26 07:07:58;;;;;;;9.67;5.23;;;;;;;3.61;72.79;95416.44;4986812;28;20223;-80
2021/01/26 07:10:34;;;;;;;5.40;4.20;;;;;;;3.01;62.62;95408.22;4976356;28;20295;-82
2021/01/26 07:13:28;;;;;;;4.87;4.40;;;;;;;2.27;65.37;95412.97;5023976;28;20206;-81
2021/01/26 07:16:30;;;;;;;6.13;4.27;;;;;;;1.80;66.88;95406.78;5023149;28;20227;-82
2021/01/26 07:19:38;;;;;;;4.97;4.53;;;;;;;1.37;70.27;95404.41;5013515;28;20284;-82
2021/01/26 07:22:52;;;;;;;5.23;4.03;;;;;;;1.03;71.48;95407.16;5025011;28;20207;-82
2021/01/26 07:25:27;;;;;;;5.17;4.37;;;;;;;0.91;73.18;95408.13;5010828;28;20222;-82
2021/01/26 07:28:33;;;;;;;4.17;3.63;;;;;;;0.79;73.70;95410.81;5028220;28;20273;-82
2021/01/26 07:51:49;;;;;;;3.23;2.90;;;;;;;0.75;73.47;95457.63;4880488;29;20314;-82
2021/01/26 08:04:03;;;;;;;4.07;3.60;;;;;;;0.49;83.51;95482.41;5016168;28;20700;-82
2021/01/26 08:10:18;;;;;;;4.93;3.90;;;;;;;0.29;85.83;95471.28;4936676;29;20287;-81
2021/01/26 08:13:03;;;;;;;5.23;4.20;;;;;;;0.29;86.93;95476.34;4954814;29;20237;-81
2021/01/26 08:37:12;;;;;;;4.10;3.70;;;;;;;0.38;85.04;95468.06;4975280;28;20306;-82
2021/01/26 08:47:37;;;;;;;;;;;;;;;;;;;;;
2021/01/26 08:51:01;;;;;;;7.20;3.90;;;;;;;0.37;84.85;95471.50;4982396;28;20233;-83
2021/01/26 09:05:08;;;;;;;4.93;3.53;;;;;;;0.33;84.64;95476.00;4954254;29;20268;-83
2021/01/26 09:12:16;;;;;;;4.17;3.60;;;;;;;0.54;82.77;95465.97;4974209;28;20266;-83
2021/01/26 09:15:33;;;;;;;4.90;3.63;;;;;;;0.61;82.07;95481.47;4973160;28;20266;-83
2021/01/26 09:28:58;;;;;;;4.70;3.70;;;;;;;0.75;79.78;95485.50;4849377;29;20216;-84
2021/01/26 09:48:33;;;;;;;4.47;3.77;;;;;;;1.02;77.68;95509.47;4004464;26;20257;-83
2021/01/26 10:51:27;;;;;;;4.13;2.90;;;;;;;1.99;80.67;95531.25;4901147;29;20265;-84
2021/01/26 10:54:07;;;;;;;5.27;4.00;;;;;;;3.05;84.64;95533.38;4960428;29;20488;-86
2021/01/26 10:56:45;;;;;;;3.27;2.97;;;;;;;3.85;73.21;95542.50;5065200;28;20294;-86
2021/01/26 11:12:41;;;;;;;5.40;3.47;;;;;;;1.98;70.42;95556.78;4956195;29;20230;-84
2021/01/26 11:19:16;;;;;;;4.43;2.87;;;;;;;1.93;71.12;95553.78;4917170;29;20211;-84
2021/01/26 11:22:08;;;;;;;4.47;2.90;;;;;;;1.85;71.35;95554.44;4860856;29;20231;-84
2021/01/26 11:28:12;;;;;;;3.30;2.97;;;;;;;1.84;71.52;95552.00;4861659;29;20228;-83
2021/01/26 11:34:17;;;;;;;3.30;3.00;;;;;;;2.96;69.36;95546.88;4973521;28;20917;-83
2021/01/26 11:37:37;;;;;;;2.77;2.57;;;;;;;2.68;68.72;95550.97;4974396;28;20835;-83
2021/01/26 11:56:40;;;;;;;5.10;3.30;;;;;;;1.73;72.02;95579.06;4972842;28;20699;-83
2021/01/26 11:59:07;;;;;;;4.50;3.10;;;;;;;1.65;71.56;95578.88;4955241;29;20217;-82
2021/01/26 12:04:57;;;;;;;3.07;2.63;;;;;;;1.61;71.61;95577.50;4998298;28;20794;-81
2021/01/26 12:11:06;;;;;;;3.03;2.73;;;;;;;1.59;71.24;95579.34;5053360;28;20254;-80
2021/01/26 12:13:46;;;;;;;;;;;;;;;;;;;;;
2021/01/26 12:16:15;;;;;;;3.30;2.50;;;;;;;1.56;71.23;95583.84;5075208;28;20327;-81
2021/01/26 12:22:46;;;;;;;2.90;2.60;;;;;;;1.71;70.48;95575.84;5073064;28;20208;-81
2021/01/26 12:32:11;;;;;;;4.13;2.50;;;;;;;1.83;69.90;95568.97;4937530;28;20288;-82
2021/01/26 12:41:19;;;;;;;3.60;2.57;;;;;;;1.90;69.40;95552.34;4987107;28;20341;-82
2021/01/26 12:43:45;;;;;;;2.50;2.30;;;;;;;1.93;69.39;95549.53;5015012;28;20195;-81
2021/01/26 12:49:50;;;;;;;3.70;2.20;;;;;;;1.89;69.59;95555.81;4915963;29;20224;-81
2021/01/26 12:53:08;;;;;;;4.60;2.40;;;;;;;1.91;69.15;95548.06;4915851;29;20288;-82
2021/01/26 13:12:06;;;;;;;3.83;2.33;;;;;;;1.87;69.60;95593.19;5052545;28;20224;-81
2021/01/26 14:14:28;;;;;;;4.40;2.60;;;;;;;1.75;67.36;95601.78;4969255;28;20211;-83
2021/01/26 14:16:58;;;;;;;4.90;2.70;;;;;;;1.69;66.92;95598.00;4993987;28;20223;-83
2021/01/26 14:19:25;;;;;;;2.80;2.50;;;;;;;1.73;67.06;95596.81;5031201;28;20205;-84
2021/01/26 14:21:51;;;;;;;6.73;4.73;;;;;;;1.85;67.01;95600.13;5037872;28;20285;-83
2021/01/26 14:24:43;;;;;;;3.70;2.37;;;;;;;1.86;66.45;95606.00;5037329;28;20202;-84
2021/01/26 14:27:14;;;;;;;2.83;2.30;;;;;;;1.70;65.87;95601.34;5037596;28;20663;-83
2021/01/26 14:29:41;;;;;;;2.80;2.50;;;;;;;1.78;67.03;95601.53;5037765;28;20214;-82
2021/01/26 14:35:05;;;;;;;2.53;2.30;;;;;;;1.93;66.11;95607.09;5030938;28;20213;-83
2021/01/26 14:40:50;;;;;;;3.67;2.47;;;;;;;2.00;65.17;95608.22;4976246;28;20224;-83
2021/01/26 14:43:59;;;;;;;2.80;2.40;;;;;;;1.98;64.88;95607.56;4975521;28;20208;-84
2021/01/26 14:46:50;;;;;;;3.90;2.43;;;;;;;1.96;65.00;95602.59;4906907;28;20286;-83
2021/01/26 14:49:59;;;;;;;8.67;2.40;;;;;;;1.92;64.59;95598.72;4974963;28;20291;-84
2021/01/26 14:53:25;;;;;;;2.73;2.40;;;;;;;1.96;65.39;95610.22;4966439;28;20204;-84
2021/01/26 15:03:17;;;;;;;2.30;2.10;;;;;;;1.92;64.90;95616.50;4786160;29;20209;-84
2021/01/26 15:09:25;;;;;;;4.07;2.17;;;;;;;1.98;65.19;95615.97;4970723;28;20261;-85
2021/01/26 15:18:29;;;;;;;4.33;2.40;;;;;;;1.84;64.99;95612.94;5056724;28;20450;-84
2021/01/26 15:21:06;;;;;;;4.00;2.70;;;;;;;1.85;64.34;95615.34;5054223;28;20204;-84
2021/01/26 15:23:54;;;;;;;3.73;2.40;;;;;;;1.85;65.29;95625.50;5057454;28;20725;-83
2021/01/26 15:30:07;;;;;;;2.60;2.33;;;;;;;1.71;68.79;95638.50;5051086;28;20214;-84
2021/01/26 15:36:38;;;;;;;3.80;2.50;;;;;;;1.48;70.36;95644.56;4973726;28;20205;-83
2021/01/26 15:39:53;;;;;;;3.87;2.33;;;;;;;1.62;69.55;95634.94;5015605;28;20214;-84
2021/01/26 15:42:39;;;;;;;2.80;2.20;;;;;;;1.60;68.77;95636.78;5014930;28;20206;-84
2021/01/26 15:55:35;;;;;;;4.33;2.60;;;;;;;1.66;68.78;95646.47;5007809;28;20732;-84
2021/01/26 16:04:46;;;;;;;4.47;2.70;;;;;;;1.65;72.48;95662.63;5050425;28;20204;-85
2021/01/26 16:07:32;;;;;;;4.03;2.97;;;;;;;1.56;73.29;95665.84;5076853;28;20224;-84
2021/01/26 16:09:58;;;;;;;6.43;3.23;;;;;;;1.50;72.56;95665.53;5076476;28;20212;-83
2021/01/26 16:12:26;;;;;;;4.37;2.77;;;;;;;1.43;72.64;95664.41;5076329;28;20201;-84
2021/01/26 16:14:52;;;;;;;4.70;2.90;;;;;;;1.43;72.73;95677.88;5076122;28;20208;-84
2021/01/26 16:17:18;;;;;;;4.47;3.00;;;;;;;1.37;74.73;95674.06;5076747;28;20217;-84
2021/01/26 16:19:45;;;;;;;3.07;2.63;;;;;;;1.31;74.98;95672.03;5076056;28;20699;-83
2021/01/26 16:22:11;;;;;;;3.63;3.00;;;;;;;1.38;75.20;95677.44;5076497;28;20200;-83
2021/01/26 16:24:37;;;;;;;4.30;2.60;;;;;;;1.52;74.66;95682.25;5075208;28;20205;-83
2021/01/26 16:27:03;;;;;;;5.10;2.90;;;;;;;1.51;74.61;95685.72;5075506;28;20878;-83
2021/01/26 16:29:29;;;;;;;4.00;2.77;;;;;;;1.54;74.20;95690.53;5075585;28;20254;-82
2021/01/26 16:31:55;;;;;;;4.97;2.50;;;;;;;1.44;74.77;95684.56;5076659;28;20735;-83
2021/01/26 16:34:24;;;;;;;5.47;2.70;;;;;;;1.50;75.65;95695.97;5074608;28;20204;-82
2021/01/26 16:36:52;;;;;;;3.33;2.57;;;;;;;1.37;76.05;95699.44;5074094;28;20252;-82
2021/01/26 16:39:18;;;;;;;5.07;3.00;;;;;;;1.34;76.94;95691.28;5074989;28;20212;-82
2021/01/26 16:41:44;;;;;;;3.00;2.70;;;;;;;1.23;77.53;95692.09;5075313;28;20200;-81
2021/01/26 16:44:11;;;;;;;4.00;2.60;;;;;;;1.23;77.56;95702.22;5075500;28;20254;-82
2021/01/26 16:46:37;;;;;;;3.33;2.80;;;;;;;1.24;77.72;95695.44;5074608;28;20232;-79
2021/01/26 16:49:03;;;;;;;5.23;2.87;;;;;;;1.26;77.72;95701.19;5072891;28;20208;-78
2021/01/26 16:51:29;;;;;;;4.33;3.03;;;;;;;1.30;77.16;95702.59;5074629;28;20229;-79
2021/01/26 16:53:57;;;;;;;3.60;3.27;;;;;;;1.41;76.48;95706.81;5073458;28;20668;-78
2021/01/26 16:56:23;;;;;;;2.60;2.37;;;;;;;1.41;76.36;95702.56;5072083;28;20229;-76
2021/01/26 16:58:49;;;;;;;3.70;2.87;;;;;;;1.34;75.93;95709.84;5071055;28;20590;-76
2021/01/26 17:01:16;;;;;;;3.30;2.90;;;;;;;1.37;75.59;95716.41;5071156;28;20204;-77
2021/01/26 17:03:42;;;;;;;3.20;2.80;;;;;;;1.45;75.52;95708.22;5070986;28;20204;-77
2021/01/26 17:06:08;;;;;;;3.37;2.90;;;;;;;1.37;74.77;95703.72;5071610;28;20228;-77
2021/01/26 17:08:35;;;;;;;2.97;2.50;;;;;;;1.38;75.00;95720.53;5071714;28;20208;-76
2021/01/26 17:11:03;;;;;;;7.83;3.40;;;;;;;1.31;75.21;95721.94;5071504;28;20230;-77
2021/01/26 17:13:29;;;;;;;4.40;3.20;;;;;;;1.45;75.37;95724.22;5072044;28;20205;-77
2021/01/26 17:15:55;;;;;;;3.07;2.53;;;;;;;1.33;75.15;95715.84;5070897;28;20297;-76
2021/01/26 17:18:22;;;;;;;4.63;2.90;;;;;;;1.39;74.99;95722.97;5071408;28;20200;-76
2021/01/26 17:20:51;;;;;;;3.73;3.10;;;;;;;1.37;75.40;95729.06;5071512;28;20193;-77
2021/01/26 17:23:17;;;;;;;4.23;2.70;;;;;;;1.38;75.23;95730.69;5071611;28;20208;-76
2021/01/26 17:25:45;;;;;;;5.33;2.77;;;;;;;1.34;76.09;95724.25;5070831;28;20196;-75
2021/01/26 17:28:13;;;;;;;3.53;2.50;;;;;;;1.37;76.36;95729.06;5071134;28;20208;-75
2021/01/26 17:30:41;;;;;;;3.97;2.90;;;;;;;1.28;76.79;95723.00;5071071;28;20223;-77
2021/01/26 17:33:08;;;;;;;3.23;2.70;;;;;;;1.36;76.92;95730.81;5070648;28;20201;-75
2021/01/26 17:35:35;;;;;;;4.07;2.60;;;;;;;1.31;77.44;95734.63;5070878;28;20227;-77
2021/01/26 17:38:01;;;;;;;3.17;2.77;;;;;;;1.39;77.97;95739.91;5070984;28;20352;-77
2021/01/26 17:40:27;;;;;;;3.93;2.90;;;;;;;1.26;79.41;95737.50;5070864;28;20197;-76
2021/01/26 17:42:53;;;;;;;4.83;3.10;;;;;;;1.32;80.44;95742.13;5071210;28;20254;-76
2021/01/26 17:45:22;;;;;;;7.10;2.80;;;;;;;1.41;79.78;95752.47;5070824;28;20205;-76
2021/01/26 17:47:48;;;;;;;3.93;2.90;;;;;;;1.45;78.61;95751.34;5070653;28;20220;-75
2021/01/26 17:50:15;;;;;;;4.53;2.83;;;;;;;1.40;79.59;95744.06;5070868;28;20216;-76
2021/01/26 17:52:41;;;;;;;7.30;2.97;;;;;;;1.29;80.18;95756.75;5070663;28;20209;-76
2021/01/26 17:55:09;;;;;;;3.63;2.83;;;;;;;1.31;81.83;95750.66;5071072;28;20201;-77
2021/01/26 17:57:35;;;;;;;5.27;3.30;;;;;;;1.41;81.60;95765.16;5071319;28;20225;-77
2021/01/26 18:00:04;;;;;;;4.87;2.50;;;;;;;1.31;81.85;95754.94;5071044;28;20568;-76
2021/01/26 18:02:31;;;;;;;5.23;3.00;;;;;;;1.30;81.60;95751.56;5070878;28;20212;-77
2021/01/26 18:04:56;;;;;;;5.93;4.63;;;;;;;1.28;80.21;95750.06;5071123;28;20204;-76
2021/01/26 18:07:22;;;;;;;4.77;3.00;;;;;;;1.33;79.25;95750.53;5071275;28;20639;-76
2021/01/26 18:09:49;;;;;;;4.17;2.90;;;;;;;1.32;78.01;95746.41;5071257;28;20205;-75
2021/01/26 18:12:16;;;;;;;3.43;2.47;;;;;;;1.39;77.10;95750.06;5070661;28;20227;-77
2021/01/26 18:14:42;;;;;;;3.40;2.53;;;;;;;1.31;77.07;95752.38;5071018;28;20254;-77
2021/01/26 18:17:08;;;;;;;2.47;2.27;;;;;;;1.26;76.67;95750.19;5071455;28;20802;-77
2021/01/26 18:19:36;;;;;;;4.20;2.53;;;;;;;1.35;76.93;95752.00;5071705;28;20258;-77
2021/01/26 18:22:02;;;;;;;2.90;2.57;;;;;;;1.37;75.87;95754.44;5071498;28;20287;-77
2021/01/26 18:24:28;;;;;;;4.40;2.83;;;;;;;1.29;76.38;95761.84;5071374;28;20246;-77
2021/01/26 18:26:54;;;;;;;5.40;2.80;;;;;;;1.34;76.13;95758.03;5071127;28;20711;-77
2021/01/26 18:29:23;;;;;;;3.97;2.63;;;;;;;1.25;76.21;95762.97;5071556;28;20201;-77
2021/01/26 18:31:49;;;;;;;6.13;3.00;;;;;;;1.26;76.46;95767.94;5071272;28;20220;-77
2021/01/26 18:34:15;;;;;;;3.13;2.43;;;;;;;1.17;76.65;95762.75;5070918;28;20722;-77
2021/01/26 18:36:42;;;;;;;3.60;2.57;;;;;;;1.24;76.53;95774.84;5070894;28;20232;-77
2021/01/26 18:39:10;;;;;;;3.60;2.70;;;;;;;1.22;76.84;95774.16;5071558;28;20197;-77
2021/01/26 18:41:37;;;;;;;4.87;2.67;;;;;;;1.31;76.96;95777.75;5071281;28;20197;-77
2021/01/26 18:44:04;;;;;;;4.50;2.60;;;;;;;1.40;76.44;95787.19;5071299;28;20198;-77
2021/01/26 18:46:30;;;;;;;5.63;4.37;;;;;;;1.48;76.22;95789.97;5070873;28;20242;-76
2021/01/26 18:48:55;;;;;;;5.67;4.53;;;;;;;1.56;76.53;95799.53;5071204;28;20211;-77
2021/01/26 18:51:21;;;;;;;2.90;2.60;;;;;;;1.45;76.24;95797.81;5070377;28;20256;-76
2021/01/26 18:53:48;;;;;;;3.93;2.63;;;;;;;1.46;76.47;95794.34;5069804;28;20197;-77
2021/01/26 18:56:15;;;;;;;4.30;2.97;;;;;;;1.44;76.52;95786.03;5069673;28;20220;-76
2021/01/26 18:58:41;;;;;;;4.00;2.63;;;;;;;1.48;76.79;95789.97;5069438;28;20238;-77
2021/01/26 19:01:08;;;;;;;3.77;2.63;;;;;;;1.36;76.49;95795.94;5069795;28;20204;-76
2021/01/26 19:03:34;;;;;;;4.60;2.70;;;;;;;1.44;76.27;95790.31;5070782;28;20784;-76
2021/01/26 19:06:00;;;;;;;4.07;2.87;;;;;;;1.41;76.21;95791.34;5073051;28;20208;-77
2021/01/26 19:08:28;;;;;;;3.57;2.77;;;;;;;1.47;76.19;95798.50;5073429;28;20208;-75
2021/01/26 19:10:55;;;;;;;3.17;2.70;;;;;;;1.45;76.43;95797.00;5073323;28;20658;-76
2021/01/26 19:13:21;;;;;;;4.23;3.07;;;;;;;1.35;76.43;95786.72;5073480;28;20570;-76
2021/01/26 19:15:51;;;;;;;3.57;2.67;;;;;;;1.29;77.10;95789.72;5073766;28;20310;-76
2021/01/26 19:18:17;;;;;;;4.53;2.90;;;;;;;1.28;77.36;95790.66;5073603;28;20585;-76
2021/01/26 19:20:43;;;;;;;3.77;2.63;;;;;;;1.25;78.15;95790.88;5073647;28;20201;-76
2021/01/26 19:23:09;;;;;;;4.53;2.80;;;;;;;1.26;77.92;95792.50;5073605;28;20204;-75
2021/01/26 19:25:35;;;;;;;7.47;3.07;;;;;;;1.32;77.11;95799.66;5072992;28;20196;-76
2021/01/26 19:28:02;;;;;;;4.13;3.17;;;;;;;1.35;76.20;95796.88;5072929;28;20232;-76
2021/01/26 19:30:28;;;;;;;3.23;2.60;;;;;;;1.35;74.56;95796.88;5073090;28;20204;-76
2021/01/26 19:32:54;;;;;;;4.43;2.93;;;;;;;1.51;74.40;95797.34;5072851;28;20208;-76
2021/01/26 19:35:23;;;;;;;4.07;2.90;;;;;;;1.60;73.91;95795.84;5072784;28;20255;-76
2021/01/26 19:37:49;;;;;;;3.03;2.73;;;;;;;1.54;72.30;95802.16;5073051;28;20221;-77
2021/01/26 19:40:18;;;;;;;6.93;5.03;;;;;;;1.55;72.16;95808.84;5073077;28;20568;-76
2021/01/26 19:42:44;;;;;;;3.20;2.83;;;;;;;1.51;71.58;95811.75;5073112;28;20197;-75
2021/01/26 19:45:12;;;;;;;2.77;2.50;;;;;;;1.50;71.54;95805.88;5072658;28;20212;-75
2021/01/26 19:47:39;;;;;;;2.47;2.27;;;;;;;1.54;72.09;95816.63;5072478;28;20221;-76
2021/01/26 19:50:07;;;;;;;2.53;2.20;;;;;;;1.54;72.86;95807.25;5072532;28;20742;-76
2021/01/26 19:52:33;;;;;;;4.73;2.50;;;;;;;1.53;75.17;95809.91;5072143;28;20232;-76
2021/01/26 19:54:59;;;;;;;2.83;2.53;;;;;;;1.51;74.84;95811.75;5072046;28;20717;-76
2021/01/26 19:57:26;;;;;;;2.73;2.47;;;;;;;1.48;73.89;95812.00;5072374;28;20232;-76
2021/01/26 19:59:53;;;;;;;4.17;2.63;;;;;;;1.55;73.10;95824.09;5072292;28;20216;-75
2021/01/26 20:02:19;;;;;;;4.10;2.50;;;;;;;1.61;72.19;95813.47;5072149;28;20197;-76
2021/01/26 20:04:45;;;;;;;3.57;2.40;;;;;;;1.62;71.44;95824.44;5072182;28;20204;-76
2021/01/26 20:07:11;;;;;;;2.27;2.07;;;;;;;1.61;71.76;95817.75;5071755;28;20336;-76
2021/01/26 20:09:37;;;;;;;2.80;2.20;;;;;;;1.62;72.54;95819.38;5071839;28;20201;-76
2021/01/26 20:12:04;;;;;;;4.83;2.27;;;;;;;1.66;72.77;95818.22;5071887;28;20251;-76
2021/01/26 20:14:30;;;;;;;3.20;2.17;;;;;;;1.67;70.81;95828.25;5071674;28;20204;-76
2021/01/26 20:16:56;;;;;;;3.07;2.40;;;;;;;1.73;71.10;95820.16;5072234;28;20727;-76
2021/01/26 20:19:26;;;;;;;2.83;2.20;;;;;;;1.66;68.39;95810.59;5071834;28;20208;-76
2021/01/26 20:21:52;;;;;;;2.30;2.10;;;;;;;1.71;68.73;95811.88;5071911;28;20197;-76
2021/01/26 20:24:18;;;;;;;2.30;1.93;;;;;;;1.76;67.71;95824.19;5071335;28;20201;-76
2021/01/26 20:26:44;;;;;;;2.20;2.00;;;;;;;1.83;67.85;95832.16;5071810;28;20255;-75
2021/01/26 20:29:10;;;;;;;2.60;2.10;;;;;;;1.86;67.46;95829.38;5071691;28;20204;-76
2021/01/26 20:31:36;;;;;;;2.40;1.90;;;;;;;1.87;68.39;95836.09;5071462;28;20221;-76
2021/01/26 20:34:02;;;;;;;2.23;2.03;;;;;;;1.92;67.81;95841.63;5071001;28;20693;-76
2021/01/26 20:36:29;;;;;;;3.07;2.00;;;;;;;1.95;67.56;95841.38;5071034;28;20221;-76
2021/01/26 20:38:55;;;;;;;2.73;2.13;;;;;;;1.86;67.41;95839.53;5071427;28;20200;-76
2021/01/26 20:41:22;;;;;;;3.30;2.60;;;;;;;1.87;67.61;95843.69;5071489;28;20197;-76
2021/01/26 20:43:49;;;;;;;2.40;2.20;;;;;;;1.93;67.95;95845.75;5071034;28;20205;-76
2021/01/26 20:46:15;;;;;;;3.07;2.10;;;;;;;1.92;67.33;95850.06;5071168;28;20247;-75
2021/01/26 20:48:41;;;;;;;3.10;2.60;;;;;;;1.87;68.00;95852.13;5071170;28;20197;-76
2021/01/26 20:51:09;;;;;;;2.30;2.10;;;;;;;1.91;67.91;95845.91;5071091;28;20228;-76
2021/01/26 20:53:39;;;;;;;3.17;2.20;;;;;;;1.89;68.48;95852.00;5071443;28;20208;-76
2021/01/26 20:56:05;;;;;;;2.33;2.00;;;;;;;1.92;67.89;95855.13;5070854;28;20737;-76
2021/01/26 20:58:31;;;;;;;3.77;2.17;;;;;;;1.90;69.01;95853.63;5070809;28;20208;-76
2021/01/26 21:00:57;;;;;;;5.40;4.33;;;;;;;1.81;71.47;95846.69;5071081;28;20204;-76
2021/01/26 21:03:23;;;;;;;5.10;3.70;;;;;;;1.81;71.93;95844.97;5070963;28;20205;-76
2021/01/26 21:05:49;;;;;;;6.37;2.70;;;;;;;1.82;72.40;95843.22;5070811;28;20200;-76
2021/01/26 21:08:15;;;;;;;3.60;2.50;;;;;;;1.79;72.07;95839.19;5071018;28;20676;-76
2021/01/26 21:10:45;;;;;;;3.07;2.57;;;;;;;1.71;71.99;95836.44;5071125;28;20711;-76
2021/01/26 21:13:11;;;;;;;4.63;2.20;;;;;;;1.78;70.83;95834.22;5070766;28;20197;-74
2021/01/26 21:15:38;;;;;;;3.73;2.30;;;;;;;1.76;70.48;95838.63;5070725;28;20208;-76
2021/01/26 21:18:06;;;;;;;2.80;2.40;;;;;;;1.84;70.16;95838.84;5070763;28;20213;-76
2021/01/26 21:20:33;;;;;;;3.70;2.37;;;;;;;1.84;69.80;95836.31;5070976;28;20204;-76
2021/01/26 21:23:01;;;;;;;3.37;2.43;;;;;;;1.87;69.00;95838.63;5070452;28;20204;-75
2021/01/26 21:25:30;;;;;;;3.40;2.40;;;;;;;1.95;70.19;95837.09;5070478;28;20691;-76
2021/01/26 21:28:00;;;;;;;3.03;2.40;;;;;;;1.93;69.00;95833.88;5069951;28;20244;-76
2021/01/26 21:30:29;;;;;;;5.67;2.50;;;;;;;1.96;68.23;95838.72;5070659;28;20201;-76
2021/01/26 21:32:56;;;;;;;3.33;2.60;;;;;;;2.02;68.54;95842.53;5070798;28;20201;-76
2021/01/26 21:35:24;;;;;;;2.63;2.30;;;;;;;1.95;67.82;95848.97;5070547;28;20266;-76
2021/01/26 21:37:53;;;;;;;5.27;2.53;;;;;;;1.97;67.92;95847.94;5070469;28;20225;-76
2021/01/26 21:40:21;;;;;;;4.03;2.50;;;;;;;1.86;67.97;95840.34;5070487;28;20208;-75
2021/01/26 21:42:49;;;;;;;3.17;2.37;;;;;;;1.85;68.16;95843.81;5070591;28;20239;-76
2021/01/26 21:45:18;;;;;;;2.57;2.30;;;;;;;1.92;68.04;95847.50;5070354;28;20559;-76
2021/01/26 21:47:45;;;;;;;3.67;2.20;;;;;;;1.97;69.03;95853.03;5070760;28;20587;-76
2021/01/26 21:50:15;;;;;;;2.40;2.20;;;;;;;1.90;69.72;95851.91;5070350;28;20696;-76
2021/01/26 21:52:41;;;;;;;2.80;2.50;;;;;;;1.92;70.65;95864.47;5070757;28;20723;-76
2021/01/26 21:55:08;;;;;;;3.10;2.80;;;;;;;1.89;70.97;95857.09;5069967;28;20203;-77
2021/01/26 21:57:38;;;;;;;2.60;2.33;;;;;;;1.87;70.67;95858.94;5069959;28;20221;-76
2021/01/26 22:00:06;;;;;;;3.00;2.60;;;;;;;1.88;70.67;95870.69;5070004;28;20205;-75
2021/01/26 22:02:33;;;;;;;3.30;2.77;;;;;;;1.85;70.23;95866.66;5069996;28;20235;-75
2021/01/26 22:04:59;;;;;;;3.13;2.83;;;;;;;1.91;69.88;95866.19;5069888;28;20707;-76
2021/01/26 22:07:25;;;;;;;2.17;2.00;;;;;;;1.96;69.98;95860.75;5070184;28;20255;-76
2021/01/26 22:09:51;;;;;;;5.17;2.60;;;;;;;1.98;69.71;95864.00;5070138;28;20331;-76
2021/01/26 22:12:17;;;;;;;2.90;2.50;;;;;;;1.93;69.78;95866.06;5069894;28;20227;-76
2021/01/26 22:14:43;;;;;;;2.87;2.40;;;;;;;1.91;69.48;95865.41;5070136;28;20205;-75
2021/01/26 22:17:08;;;;;;;5.87;2.57;;;;;;;1.90;69.27;95866.31;5070326;28;20267;-75
2021/01/26 22:19:35;;;;;;;3.13;2.67;;;;;;;1.92;69.62;95875.44;5070395;28;20197;-76
2021/01/26 22:22:01;;;;;;;3.63;2.70;;;;;;;1.89;70.03;95874.84;5070200;28;20197;-76
2021/01/26 22:24:27;;;;;;;4.93;3.40;;;;;;;1.91;71.42;95873.00;5069781;28;20196;-76
2021/01/26 22:26:54;;;;;;;7.50;5.43;;;;;;;1.98;72.20;95869.88;5069863;28;20305;-75
2021/01/26 22:29:20;;;;;;;5.93;3.37;;;;;;;1.92;73.52;95872.09;5069896;28;20231;-76
2021/01/26 22:31:47;;;;;;;4.40;2.90;;;;;;;1.86;73.63;95872.53;5070065;28;20229;-76
2021/01/26 22:34:13;;;;;;;5.77;3.40;;;;;;;1.88;73.77;95870.69;5069641;28;20211;-76
2021/01/26 22:36:40;;;;;;;3.10;2.83;;;;;;;1.80;73.17;95873.00;5069614;28;20909;-76
2021/01/26 22:39:07;;;;;;;3.97;3.00;;;;;;;1.82;72.91;95877.03;5073441;28;20197;-75
2021/01/26 22:41:33;;;;;;;3.73;3.13;;;;;;;1.95;71.55;95874.38;5073859;28;20250;-76
2021/01/26 22:43:59;;;;;;;4.43;2.63;;;;;;;1.90;70.16;95868.84;5073517;28;20200;-76
2021/01/26 22:46:25;;;;;;;4.00;2.60;;;;;;;1.87;69.52;95867.34;5073916;28;20307;-76
2021/01/26 22:48:51;;;;;;;5.63;2.90;;;;;;;1.91;68.99;95865.41;5073834;28;20200;-76
2021/01/26 22:51:17;;;;;;;3.60;2.60;;;;;;;1.84;68.59;95871.84;5073815;28;20252;-76
2021/01/26 22:53:44;;;;;;;3.83;2.60;;;;;;;1.88;69.27;95861.34;5073443;28;20334;-76
2021/01/26 22:56:12;;;;;;;4.40;2.60;;;;;;;1.81;67.88;95859.38;5073175;28;20272;-76
2021/01/26 22:58:38;;;;;;;4.57;2.67;;;;;;;1.76;67.98;95864.00;5073562;28;20201;-76
2021/01/26 23:01:06;;;;;;;2.90;2.50;;;;;;;1.84;67.52;95859.97;5073501;28;20234;-76
2021/01/26 23:03:32;;;;;;;3.67;2.60;;;;;;;1.92;67.82;95867.00;5073537;28;20271;-76
2021/01/26 23:05:58;;;;;;;3.33;2.27;;;;;;;1.88;67.09;95861.34;5073060;28;20230;-75
2021/01/26 23:08:24;;;;;;;2.70;2.50;;;;;;;1.92;67.67;95855.13;5073307;28;20204;-76
2021/01/26 23:10:53;;;;;;;4.47;2.43;;;;;;;1.92;67.18;95859.41;5073015;28;20212;-75
2021/01/26 23:13:20;;;;;;;2.93;2.60;;;;;;;1.99;67.19;95855.44;5073434;28;20205;-76
2021/01/26 23:15:46;;;;;;;3.80;2.40;;;;;;;1.85;66.25;95864.13;5073241;28;20231;-76
2021/01/26 23:18:16;;;;;;;2.47;2.27;;;;;;;1.91;66.98;95863.66;5073311;28;20282;-76
2021/01/26 23:20:44;;;;;;;3.30;2.20;;;;;;;1.92;66.33;95856.84;5073278;28;20197;-76
2021/01/26 23:23:13;;;;;;;4.37;2.20;;;;;;;1.99;66.34;95860.53;5072798;28;20192;-76
2021/01/26 23:25:39;;;;;;;2.90;2.30;;;;;;;2.02;66.60;95866.19;5072971;28;20201;-76
2021/01/26 23:28:06;;;;;;;4.53;2.37;;;;;;;2.00;66.41;95862.13;5072927;28;20897;-76
2021/01/26 23:30:38;;;;;;;3.30;2.60;;;;;;;2.04;66.01;95855.91;5073026;28;20203;-76
2021/01/26 23:33:06;;;;;;;3.40;2.53;;;;;;;1.97;66.91;95864.91;5072846;28;20209;-76
2021/01/26 23:35:33;;;;;;;8.00;5.63;;;;;;;2.01;66.58;95856.13;5072312;28;20406;-76
2021/01/26 23:37:59;;;;;;;4.70;4.00;;;;;;;2.05;66.55;95863.41;5072715;28;20232;-76
2021/01/26 23:40:28;;;;;;;3.00;2.70;;;;;;;2.02;65.99;95852.69;5072809;28;20197;-75
2021/01/26 23:42:54;;;;;;;2.87;2.27;;;;;;;2.04;66.44;95853.38;5072899;28;20695;-76
2021/01/26 23:45:23;;;;;;;3.30;2.27;;;;;;;2.02;66.62;95850.94;5072491;28;20249;-76
2021/01/26 23:47:49;;;;;;;2.53;2.30;;;;;;;2.05;66.42;95853.25;5072554;28;20598;-76
2021/01/26 23:50:18;;;;;;;5.60;2.20;;;;;;;1.96;66.34;95848.88;5071888;28;20205;-76
2021/01/26 23:52:44;;;;;;;3.63;2.27;;;;;;;2.01;66.33;95848.53;5072562;28;20221;-76
2021/01/26 23:55:11;;;;;;;3.80;2.60;;;;;;;2.05;66.24;95849.91;5072311;28;20201;-76
2021/01/26 23:57:37;;;;;;;3.43;2.60;;;;;;;2.12;65.67;95845.94;5072453;28;20221;-76
